Time;durP1;ratioP1;P1;durP2;ratioP2;P2;SDS_P1;SDS_P2;PMS_P1;PMS_P2;Temp;Humidity;BMP_temperature;BMP_pressure;BME280_temperature;BME280_humidity;BME280_pressure;Samples;Min_cycle;Max_cycle;Signal;HPM_P1;HPM_P2
2022/09/17 00:00:38;;;;;;;4.03;3.67;;;;;;;14.71;100.00;98673.80;1759094;81;21962;-58
2022/09/17 00:03:05;;;;;;;4.45;3.00;;;;;;;14.69;100.00;98685.84;1748189;81;20950;-58
2022/09/17 00:05:31;;;;;;;4.95;3.60;;;;;;;14.60;100.00;98687.84;1753980;81;21791;-59
2022/09/17 00:07:58;;;;;;;3.62;3.30;;;;;;;14.51;100.00;98686.69;1754666;81;21615;-59
2022/09/17 00:10:25;;;;;;;3.62;3.25;;;;;;;14.48;100.00;98681.61;1697437;83;21483;-59
2022/09/17 00:12:53;;;;;;;6.33;3.77;;;;;;;14.47;100.00;98668.04;1752202;80;21452;-58
2022/09/17 00:15:19;;;;;;;5.12;3.90;;;;;;;14.50;100.00;98654.56;1752820;81;21550;-59
2022/09/17 00:17:46;;;;;;;6.22;3.55;;;;;;;14.55;100.00;98648.95;1759814;81;21428;-58
2022/09/17 00:20:12;;;;;;;6.72;3.92;;;;;;;14.62;100.00;98646.25;1744985;81;21499;-59
2022/09/17 00:22:39;;;;;;;5.17;4.10;;;;;;;14.68;100.00;98644.45;1758240;80;21583;-59
2022/09/17 00:25:07;;;;;;;3.72;3.27;;;;;;;14.75;100.00;98648.33;1755929;81;21587;-58
2022/09/17 00:27:34;;;;;;;4.40;3.83;;;;;;;14.83;100.00;98650.88;1748119;81;21563;-59
2022/09/17 00:30:00;;;;;;;4.45;3.40;;;;;;;14.94;100.00;98647.77;1755217;80;21848;-59
2022/09/17 00:32:27;;;;;;;4.15;3.27;;;;;;;14.97;100.00;98645.35;1737083;82;21453;-58
2022/09/17 00:34:53;;;;;;;5.67;3.77;;;;;;;15.03;100.00;98639.61;1739905;82;20999;-59
2022/09/17 00:37:20;;;;;;;4.12;3.62;;;;;;;15.10;100.00;98643.44;1728450;81;21566;-59
2022/09/17 00:39:47;;;;;;;6.45;3.40;;;;;;;15.07;100.00;98639.73;1736801;82;21524;-58
2022/09/17 00:42:14;;;;;;;3.45;3.15;;;;;;;15.06;100.00;98648.62;1737562;82;21724;-60
2022/09/17 00:44:51;;;;;;;5.08;3.00;;;;;;;15.05;100.00;98640.78;1736654;82;21567;-59
2022/09/17 00:47:38;;;;;;;4.67;3.05;;;;;;;15.08;100.00;98637.42;1736413;80;21499;-59
2022/09/17 00:50:22;;;;;;;4.07;3.50;;;;;;;15.13;100.00;98641.89;1735965;82;21528;-58
2022/09/17 00:52:52;;;;;;;3.62;3.33;;;;;;;15.19;100.00;98646.70;1735066;80;21676;-60
2022/09/17 00:55:27;;;;;;;4.25;3.50;;;;;;;15.20;100.00;98644.92;1733711;82;22098;-60
2022/09/17 00:57:57;;;;;;;3.50;3.20;;;;;;;15.19;100.00;98640.09;1734744;82;21556;-60
2022/09/17 01:00:25;;;;;;;3.55;3.02;;;;;;;15.12;100.00;98636.71;1733151;82;21540;-60
2022/09/17 01:02:53;;;;;;;;;;;;;;;15.14;100.00;98647.56;1734020;82;21537;-59
2022/09/17 01:05:33;;;;;;;3.60;3.30;;;;;;;15.13;100.00;98659.59;1738847;82;20482;-60
2022/09/17 01:08:29;;;;;;;6.55;3.45;;;;;;;15.14;100.00;98663.91;1709605;82;21769;-59
2022/09/17 01:11:41;;;;;;;3.35;3.05;;;;;;;15.14;100.00;98666.55;1732240;82;21587;-59
2022/09/17 01:14:15;;;;;;;4.83;3.85;;;;;;;15.12;100.00;98662.70;1669147;82;21480;-59
2022/09/17 01:17:20;;;;;;;3.60;3.30;;;;;;;15.12;100.00;98658.72;1738389;82;21523;-59
2022/09/17 01:19:55;;;;;;;5.17;3.42;;;;;;;15.16;100.00;98660.20;1693295;82;21572;-58
2022/09/17 01:22:44;;;;;;;5.58;3.30;;;;;;;15.18;100.00;98656.08;1688401;83;22202;-59
2022/09/17 01:25:27;;;;;;;4.87;3.05;;;;;;;15.19;100.00;98663.08;1686802;83;20961;-60
2022/09/17 01:28:46;;;;;;;3.27;2.98;;;;;;;15.16;100.00;98665.50;1650869;84;21401;-59
2022/09/17 01:31:30;;;;;;;3.00;2.67;;;;;;;15.18;100.00;98666.67;1681987;83;21057;-59
2022/09/17 01:34:08;;;;;;;3.87;3.10;;;;;;;15.24;100.00;98658.28;1692777;83;21560;-59
2022/09/17 01:36:50;;;;;;;3.37;3.08;;;;;;;15.35;100.00;98666.23;1677307;82;22109;-60
2022/09/17 01:39:40;;;;;;;3.25;3.05;;;;;;;15.40;100.00;98667.67;1684601;82;21023;-60
2022/09/17 01:42:42;;;;;;;5.15;3.75;;;;;;;15.28;100.00;98670.80;1688593;83;21004;-61
2022/09/17 01:45:23;;;;;;;10.13;3.67;;;;;;;15.09;100.00;98666.92;1664544;83;20977;-60
2022/09/17 01:48:05;;;;;;;7.78;3.70;;;;;;;15.03;100.00;98667.41;1659338;82;21425;-60
2022/09/17 01:50:41;;;;;;;9.48;4.25;;;;;;;15.05;100.00;98679.17;1692714;82;21823;-60
2022/09/17 01:53:09;;;;;;;5.22;3.77;;;;;;;15.05;100.00;98681.36;1688272;82;21457;-59
2022/09/17 01:55:37;;;;;;;;;;;;;;;15.08;100.00;98681.11;1680489;82;21484;-60
2022/09/17 01:58:24;;;;;;;3.60;3.30;;;;;;;15.06;100.00;98680.38;1688896;83;28023;-60
2022/09/17 02:01:04;;;;;;;4.67;3.30;;;;;;;15.07;100.00;98682.55;1622859;85;21084;-60
2022/09/17 02:03:40;;;;;;;4.92;3.40;;;;;;;15.11;100.00;98686.66;1652298;85;21869;-60
2022/09/17 02:06:14;;;;;;;3.42;3.12;;;;;;;15.17;100.00;98687.52;1660299;84;21508;-60
2022/09/17 02:08:47;;;;;;;9.20;3.70;;;;;;;15.21;100.00;98678.36;1653967;84;21496;-60
2022/09/17 02:11:15;;;;;;;4.37;3.47;;;;;;;15.26;100.00;98684.64;1653947;84;21564;-62
2022/09/17 02:13:53;;;;;;;3.67;3.42;;;;;;;15.33;100.00;98681.86;1652326;83;21437;-60
2022/09/17 02:16:34;;;;;;;4.37;3.75;;;;;;;15.35;100.00;98672.85;1658244;84;21933;-61
2022/09/17 02:19:12;;;;;;;7.17;4.08;;;;;;;15.43;100.00;98684.17;1659582;85;21586;-60
2022/09/17 02:21:59;;;;;;;4.50;4.10;;;;;;;15.48;100.00;98683.80;1638956;86;21583;-60
2022/09/17 02:24:53;;;;;;;4.03;3.72;;;;;;;15.55;100.00;98683.69;1631651;85;21520;-60
2022/09/17 02:28:04;;;;;;;6.42;3.37;;;;;;;15.57;100.00;98680.42;1657845;84;21606;-60
2022/09/17 02:30:31;;;;;;;7.15;3.90;;;;;;;15.62;100.00;98682.23;1626995;85;21882;-60
2022/09/17 02:33:00;;;;;;;4.65;4.17;;;;;;;15.69;100.00;98683.91;1632403;85;21189;-60
2022/09/17 02:35:27;;;;;;;6.55;4.28;;;;;;;15.72;100.00;98684.51;1656803;85;21001;-59
2022/09/17 02:37:53;;;;;;;5.87;4.10;;;;;;;15.73;100.00;98682.73;1663521;84;21639;-61
2022/09/17 02:40:20;;;;;;;6.83;3.77;;;;;;;15.75;100.00;98681.66;1655257;85;21466;-60
2022/09/17 02:43:26;;;;;;;4.42;3.60;;;;;;;15.80;100.00;98674.66;1654560;85;21786;-60
2022/09/17 02:46:13;;;;;;;4.80;4.00;;;;;;;15.81;100.00;98686.95;1658179;85;21456;-60
2022/09/17 02:48:58;;;;;;;4.35;3.95;;;;;;;15.84;100.00;98675.25;1658571;84;21029;-60
2022/09/17 02:51:48;;;;;;;3.70;3.37;;;;;;;15.84;100.00;98680.09;1658267;84;21059;-60
2022/09/17 02:54:32;;;;;;;3.98;3.35;;;;;;;15.89;100.00;98680.55;1651647;85;21561;-60
2022/09/17 02:57:08;;;;;;;3.62;3.22;;;;;;;15.74;100.00;98675.98;1653083;85;21856;-59
2022/09/17 02:59:53;;;;;;;4.58;3.40;;;;;;;15.72;100.00;98677.05;1649088;85;21603;-60
2022/09/17 03:02:30;;;;;;;4.37;3.62;;;;;;;15.68;100.00;98667.17;1646772;84;21603;-60
2022/09/17 03:04:56;;;;;;;3.83;3.37;;;;;;;15.65;100.00;98674.06;1659484;85;21535;-60
2022/09/17 03:07:23;;;;;;;4.97;3.30;;;;;;;15.64;100.00;98672.85;1656562;85;21062;-60
2022/09/17 03:09:50;;;;;;;5.87;3.75;;;;;;;15.72;100.00;98674.41;1629558;85;21848;-60
2022/09/17 03:12:17;;;;;;;4.65;3.72;;;;;;;15.78;100.00;98677.91;1642204;84;21460;-60
2022/09/17 03:14:44;;;;;;;6.07;4.13;;;;;;;15.78;100.00;98683.21;1648402;85;21001;-60
2022/09/17 03:17:13;;;;;;;5.15;3.70;;;;;;;15.79;100.00;98672.16;1652084;85;21460;-60
2022/09/17 03:19:40;;;;;;;4.30;3.80;;;;;;;15.73;100.00;98665.04;1650576;84;21500;-60
2022/09/17 03:22:06;;;;;;;4.03;3.47;;;;;;;15.65;100.00;98667.89;1653292;84;21600;-60
2022/09/17 03:24:33;;;;;;;3.77;3.47;;;;;;;15.66;100.00;98669.11;1649276;84;21619;-59
2022/09/17 03:27:00;;;;;;;5.47;3.52;;;;;;;15.68;100.00;98664.52;1658715;84;21028;-59
2022/09/17 03:29:27;;;;;;;8.05;2.95;;;;;;;15.72;100.00;98665.13;1645171;84;21059;-59
2022/09/17 03:31:53;;;;;;;8.60;4.25;;;;;;;15.74;100.00;98672.02;1647776;86;21122;-60
2022/09/17 03:34:20;;;;;;;5.70;3.70;;;;;;;15.71;100.00;98668.27;1651945;84;22200;-60
2022/09/17 03:36:47;;;;;;;4.53;3.60;;;;;;;15.64;100.00;98664.91;1646237;84;21573;-60
2022/09/17 03:39:13;;;;;;;3.90;3.58;;;;;;;15.58;100.00;98663.58;1654783;84;21476;-60
2022/09/17 03:41:40;;;;;;;5.83;4.12;;;;;;;15.51;100.00;98669.83;1640653;84;21528;-59
2022/09/17 03:44:06;;;;;;;3.80;3.50;;;;;;;15.53;100.00;98670.55;1643592;84;21562;-60
2022/09/17 03:46:33;;;;;;;7.92;4.10;;;;;;;15.60;100.00;98675.39;1641030;84;21927;-60
2022/09/17 03:49:00;;;;;;;4.28;3.87;;;;;;;15.66;100.00;98678.87;1653612;84;21488;-60
2022/09/17 03:51:27;;;;;;;6.28;4.00;;;;;;;15.76;100.00;98679.84;1654311;84;21096;-60
2022/09/17 03:53:54;;;;;;;5.58;3.70;;;;;;;15.76;100.00;98686.47;1651681;84;21586;-60
2022/09/17 03:56:20;;;;;;;3.92;3.60;;;;;;;15.72;100.00;98687.65;1647413;84;21637;-59
2022/09/17 03:58:47;;;;;;;4.37;3.77;;;;;;;15.66;100.00;98689.47;1644260;84;21830;-60
2022/09/17 04:01:14;;;;;;;3.77;3.40;;;;;;;15.66;100.00;98686.82;1649470;84;21606;-59
2022/09/17 04:03:41;;;;;;;4.17;3.50;;;;;;;15.64;100.00;98692.73;1646763;84;21646;-60
2022/09/17 04:06:07;;;;;;;4.30;3.80;;;;;;;15.62;100.00;98698.14;1651330;86;21568;-60
2022/09/17 04:08:35;;;;;;;4.62;4.10;;;;;;;15.67;100.00;98701.73;1654595;84;21674;-59
2022/09/17 04:11:02;;;;;;;4.60;3.85;;;;;;;15.73;100.00;98705.25;1650366;84;21471;-60
2022/09/17 04:13:29;;;;;;;4.12;3.80;;;;;;;15.65;100.00;98693.94;1641458;84;21592;-60
2022/09/17 04:15:56;;;;;;;6.85;4.10;;;;;;;15.59;100.00;98690.42;1660133;84;21091;-60
2022/09/17 04:18:22;;;;;;;3.62;3.33;;;;;;;15.53;100.00;98690.42;1653590;84;21529;-59
2022/09/17 04:20:49;;;;;;;5.97;3.80;;;;;;;15.58;100.00;98700.19;1648393;84;21427;-60
2022/09/17 04:23:15;;;;;;;5.47;3.77;;;;;;;15.58;100.00;98709.95;1650408;85;21750;-60
2022/09/17 04:25:43;;;;;;;3.52;3.22;;;;;;;15.60;100.00;98705.86;1646388;85;21562;-59
2022/09/17 04:28:10;;;;;;;3.98;3.55;;;;;;;15.61;100.00;98708.36;1635230;85;21636;-60
2022/09/17 04:30:36;;;;;;;4.03;3.72;;;;;;;15.58;100.00;98708.13;1643305;85;21173;-59
2022/09/17 04:33:03;;;;;;;4.67;4.03;;;;;;;15.57;100.00;98723.66;1636314;86;21634;-60
2022/09/17 04:35:30;;;;;;;5.12;3.67;;;;;;;15.52;100.00;98725.84;1642471;85;21782;-60
2022/09/17 04:37:57;;;;;;;6.92;3.50;;;;;;;15.48;100.00;98723.53;1638742;85;21994;-60
2022/09/17 04:40:25;;;;;;;4.13;3.80;;;;;;;15.45;100.00;98725.95;1649759;84;21650;-59
2022/09/17 04:42:53;;;;;;;4.17;3.35;;;;;;;15.50;100.00;98731.73;1652676;84;21484;-59
2022/09/17 04:45:21;;;;;;;4.25;3.47;;;;;;;15.64;100.00;98735.12;1630961;86;21684;-60
2022/09/17 04:47:49;;;;;;;7.78;4.33;;;;;;;15.79;100.00;98723.34;1634669;86;21868;-60
2022/09/17 04:50:18;;;;;;;4.85;3.92;;;;;;;15.85;100.00;98716.71;1652398;86;21494;-59
2022/09/17 04:52:45;;;;;;;4.65;4.22;;;;;;;15.95;100.00;98701.28;1611292;87;21467;-60
2022/09/17 04:55:12;;;;;;;7.60;4.70;;;;;;;15.96;100.00;98700.30;1630360;85;21521;-60
2022/09/17 04:57:38;;;;;;;6.45;4.50;;;;;;;15.95;100.00;98695.98;1622569;85;21577;-62
2022/09/17 05:00:09;;;;;;;4.83;4.42;;;;;;;15.99;100.00;98693.06;1633072;85;21866;-60
2022/09/17 05:02:36;;;;;;;7.78;4.70;;;;;;;16.06;100.00;98704.38;1645223;86;21568;-62
2022/09/17 05:05:04;;;;;;;10.70;7.47;;;;;;;16.16;100.00;98712.43;1625996;85;21486;-60
2022/09/17 05:07:31;;;;;;;11.12;8.28;;;;;;;16.26;100.00;98724.00;1636874;86;21694;-62
2022/09/17 05:12:59;;;;;;;7.83;5.25;;;;;;;15.76;100.00;98742.98;1770578;78;23271;-63
2022/09/17 05:15:26;;;;;;;8.93;5.60;;;;;;;16.27;100.00;98732.79;1739096;80;21534;-65
2022/09/17 05:17:53;;;;;;;4.97;4.53;;;;;;;16.28;100.00;98722.55;1742842;80;21825;-64
2022/09/17 05:20:21;;;;;;;7.62;4.08;;;;;;;16.29;100.00;98725.55;1744550;81;20974;-61
2022/09/17 05:22:50;;;;;;;3.55;3.25;;;;;;;16.32;100.00;98729.29;1742653;80;21486;-66
2022/09/17 05:25:19;;;;;;;5.40;3.90;;;;;;;16.43;100.00;98724.45;1734401;80;21542;-62
2022/09/17 05:27:45;;;;;;;5.03;3.98;;;;;;;16.52;100.00;98725.86;1696246;83;21533;-61
2022/09/17 05:30:12;;;;;;;6.33;3.87;;;;;;;16.55;100.00;98730.06;1670703;83;21963;-64
2022/09/17 05:32:39;;;;;;;6.85;5.10;;;;;;;16.60;100.00;98730.53;1702333;83;21514;-63
2022/09/17 05:35:07;;;;;;;6.97;5.70;;;;;;;16.63;100.00;98730.75;1700492;83;21553;-66
2022/09/17 05:37:34;;;;;;;7.45;5.15;;;;;;;16.61;100.00;98729.55;1694402;83;21628;-64
2022/09/17 05:40:02;;;;;;;5.92;4.42;;;;;;;16.69;100.00;98736.91;1686372;83;21491;-64
2022/09/17 05:42:29;;;;;;;4.30;4.00;;;;;;;16.78;100.00;98732.13;1689301;83;21850;-64
2022/09/17 05:44:56;;;;;;;5.03;4.53;;;;;;;16.84;100.00;98729.03;1704130;81;21426;-65
2022/09/17 05:47:23;;;;;;;7.62;4.33;;;;;;;16.88;100.00;98726.47;1700907;81;21561;-63
2022/09/17 05:49:49;;;;;;;11.25;7.33;;;;;;;16.87;100.00;98725.27;1707009;81;21622;-62
2022/09/17 05:52:16;;;;;;;11.20;9.53;;;;;;;16.83;100.00;98722.02;1704526;81;21619;-64
2022/09/17 05:54:43;;;;;;;9.30;6.72;;;;;;;16.77;100.00;98721.17;1695334;81;21831;-62
2022/09/17 05:57:10;;;;;;;7.33;5.30;;;;;;;16.77;100.00;98727.81;1710840;81;21572;-63
2022/09/17 05:59:36;;;;;;;5.45;4.37;;;;;;;16.77;100.00;98729.63;1709383;81;21645;-62
2022/09/17 06:02:04;;;;;;;5.08;4.58;;;;;;;16.76;100.00;98730.09;1679300;83;21564;-63
2022/09/17 06:04:30;;;;;;;8.35;4.70;;;;;;;16.76;100.00;98726.11;1704610;80;21569;-63
2022/09/17 06:06:57;;;;;;;4.92;4.42;;;;;;;16.79;100.00;98730.34;1716883;82;21893;-63
2022/09/17 06:09:23;;;;;;;4.50;4.10;;;;;;;16.80;100.00;98729.36;1689495;82;21529;-63
2022/09/17 06:11:50;;;;;;;4.42;3.95;;;;;;;16.79;100.00;98724.55;1683979;84;21040;-65
2022/09/17 06:14:17;;;;;;;4.77;3.67;;;;;;;16.85;100.00;98716.59;1695866;82;22019;-63
2022/09/17 06:16:44;;;;;;;4.28;3.87;;;;;;;16.85;100.00;98716.59;1669532;83;21971;-63
2022/09/17 06:19:10;;;;;;;6.12;3.75;;;;;;;16.92;100.00;98713.28;1681639;83;21777;-63
2022/09/17 06:21:37;;;;;;;5.33;4.37;;;;;;;16.96;100.00;98717.02;1726696;80;21528;-63
2022/09/17 06:24:04;;;;;;;4.72;4.00;;;;;;;17.00;100.00;98717.12;1729612;80;21558;-63
2022/09/17 06:26:31;;;;;;;4.80;4.37;;;;;;;17.01;100.00;98698.88;1733939;80;21577;-64
2022/09/17 06:28:59;;;;;;;4.83;4.42;;;;;;;17.05;100.00;98708.28;1709996;82;21474;-64
2022/09/17 06:31:25;;;;;;;5.67;5.00;;;;;;;17.11;100.00;98718.38;1727432;80;22001;-64
2022/09/17 06:33:52;;;;;;;7.80;5.53;;;;;;;17.10;100.00;98717.55;1735079;81;21533;-66
2022/09/17 06:36:19;;;;;;;6.20;5.60;;;;;;;17.17;100.00;98724.49;1736369;80;21492;-63
2022/09/17 06:38:46;;;;;;;5.75;5.25;;;;;;;17.23;100.00;98725.30;1731858;80;21519;-64
2022/09/17 06:41:13;;;;;;;6.03;5.42;;;;;;;17.29;100.00;98714.63;1726971;80;21498;-66
2022/09/17 06:43:40;;;;;;;9.38;7.05;;;;;;;17.36;100.00;98725.09;1686391;82;21919;-63
2022/09/17 06:46:08;;;;;;;10.35;9.25;;;;;;;17.41;100.00;98724.22;1730902;81;21482;-64
2022/09/17 06:48:37;;;;;;;16.20;12.10;;;;;;;17.48;100.00;98721.90;1732898;81;21556;-64
2022/09/17 06:51:06;;;;;;;11.95;9.18;;;;;;;17.57;100.00;98730.38;1728108;80;28489;-63
2022/09/17 06:53:36;;;;;;;8.68;7.00;;;;;;;17.67;100.00;98735.27;1727197;81;21559;-63
2022/09/17 06:56:03;;;;;;;8.03;5.50;;;;;;;17.71;100.00;98739.34;1707791;81;21878;-63
2022/09/17 06:58:30;;;;;;;6.62;4.03;;;;;;;17.77;100.00;98734.47;1731675;80;21511;-66
2022/09/17 07:01:01;;;;;;;4.17;3.77;;;;;;;17.86;100.00;98739.86;1727009;80;21582;-63
2022/09/17 07:03:30;;;;;;;4.05;3.65;;;;;;;17.86;100.00;98735.87;1731217;81;21849;-66
2022/09/17 07:05:58;;;;;;;4.70;4.05;;;;;;;17.76;100.00;98720.31;1741484;81;21514;-64
2022/09/17 07:08:25;;;;;;;3.90;3.60;;;;;;;17.91;100.00;98735.45;1735968;80;21825;-68
2022/09/17 07:10:56;;;;;;;3.98;3.67;;;;;;;17.95;100.00;98736.89;1679957;82;21477;-67
2022/09/17 07:13:23;;;;;;;5.40;4.83;;;;;;;18.05;100.00;98740.91;1698071;83;21593;-64
2022/09/17 07:15:56;;;;;;;8.00;7.20;;;;;;;18.11;100.00;98738.20;1692826;82;21530;-64
2022/09/17 07:18:23;;;;;;;7.45;6.20;;;;;;;18.21;100.00;98744.37;1709964;82;21507;-64
2022/09/17 07:20:58;;;;;;;6.45;5.10;;;;;;;18.32;100.00;98734.11;1729087;80;22094;-64
2022/09/17 07:23:27;;;;;;;5.60;5.10;;;;;;;18.32;100.00;98740.77;1733727;80;21534;-64
2022/09/17 07:25:57;;;;;;;5.83;4.67;;;;;;;18.30;100.00;98734.24;1741150;80;21541;-64
2022/09/17 07:28:24;;;;;;;6.00;4.20;;;;;;;18.24;100.00;98738.79;1736256;80;21513;-63
2022/09/17 07:30:51;;;;;;;4.60;4.20;;;;;;;18.23;100.00;98750.39;1727489;80;21026;-63
2022/09/17 07:33:24;;;;;;;5.42;4.62;;;;;;;18.25;100.00;98747.97;1744899;80;22088;-65
2022/09/17 07:35:59;;;;;;;5.10;3.67;;;;;;;18.34;100.00;98744.95;1694303;82;21534;-63
2022/09/17 07:38:27;;;;;;;6.50;3.92;;;;;;;18.41;100.00;98745.27;1723118;80;21608;-64
2022/09/17 07:41:03;;;;;;;6.62;5.35;;;;;;;18.48;100.00;98741.08;1736906;79;21573;-62
2022/09/17 07:43:32;;;;;;;6.23;5.63;;;;;;;18.50;100.00;98740.45;1693370;82;21542;-63
2022/09/17 07:46:01;;;;;;;7.42;5.08;;;;;;;18.46;100.00;98732.39;1716632;80;21810;-64
2022/09/17 07:48:28;;;;;;;5.35;4.85;;;;;;;18.43;100.00;98721.52;1733314;80;21108;-64
2022/09/17 07:50:55;;;;;;;7.83;5.28;;;;;;;18.44;100.00;98723.21;1740617;80;21511;-63
2022/09/17 07:53:22;;;;;;;8.35;6.62;;;;;;;18.47;100.00;98732.23;1735463;80;21597;-65
2022/09/17 07:55:57;;;;;;;12.65;7.10;;;;;;;18.53;100.00;98728.17;1733078;80;21509;-63
2022/09/17 07:58:32;;;;;;;9.53;8.28;;;;;;;18.57;100.00;98722.95;1726364;81;21521;-64
2022/09/17 08:01:07;;;;;;;9.63;7.47;;;;;;;18.59;100.00;98724.98;1730137;80;21208;-63
2022/09/17 08:03:36;;;;;;;8.63;6.47;;;;;;;18.60;100.00;98725.31;1685615;82;21525;-64
2022/09/17 08:06:07;;;;;;;11.35;6.80;;;;;;;18.56;100.00;98729.24;1691655;82;21647;-62
2022/09/17 08:08:35;;;;;;;6.15;5.40;;;;;;;18.55;100.00;98731.54;1697102;82;21664;-65
2022/09/17 08:11:07;;;;;;;5.80;5.17;;;;;;;18.52;100.00;98738.48;1692928;82;21829;-64
2022/09/17 08:13:34;;;;;;;5.50;4.50;;;;;;;18.53;100.00;98740.66;1689118;82;21089;-66
2022/09/17 08:16:03;;;;;;;5.28;4.78;;;;;;;18.53;100.00;98733.50;1688810;82;22016;-65
2022/09/17 08:18:29;;;;;;;6.58;4.45;;;;;;;18.54;100.00;98729.05;1689644;82;21499;-64
2022/09/17 08:20:59;;;;;;;5.80;4.53;;;;;;;18.57;100.00;98731.41;1689079;82;21483;-64
2022/09/17 08:23:27;;;;;;;6.67;4.78;;;;;;;18.60;100.00;98721.82;1680041;82;21809;-64
2022/09/17 08:25:58;;;;;;;4.45;4.05;;;;;;;18.63;100.00;98722.39;1692553;84;21465;-64
2022/09/17 08:28:26;;;;;;;4.58;4.17;;;;;;;18.64;100.00;98728.55;1682727;82;21541;-64
2022/09/17 08:30:53;;;;;;;4.78;3.17;;;;;;;18.62;100.00;98728.68;1680545;82;21526;-63
2022/09/17 08:33:20;;;;;;;3.33;3.02;;;;;;;18.65;100.00;98731.08;1690854;84;21453;-63
2022/09/17 08:35:52;;;;;;;3.05;2.60;;;;;;;18.69;100.00;98718.33;1686509;84;22036;-63
2022/09/17 08:38:18;;;;;;;3.58;2.72;;;;;;;18.74;100.00;98723.22;1682957;84;21501;-64
2022/09/17 08:41:11;;;;;;;3.20;2.98;;;;;;;18.79;100.00;98717.82;1721186;79;21496;-65
2022/09/17 08:47:05;;;;;;;3.35;3.05;;;;;;;18.84;99.01;98728.94;1625015;86;21529;-66
2022/09/17 08:49:50;;;;;;;4.85;2.92;;;;;;;18.84;99.43;98714.78;1629197;86;22190;-66
2022/09/17 08:52:48;;;;;;;2.85;2.58;;;;;;;18.86;98.55;98702.17;1619998;86;21680;-66
2022/09/17 08:55:35;;;;;;;6.50;2.98;;;;;;;18.90;97.28;98701.40;1628748;86;21607;-66
2022/09/17 08:58:20;;;;;;;2.80;2.60;;;;;;;18.93;97.27;98701.95;1625346;86;20998;-64
2022/09/17 09:01:15;;;;;;;2.15;2.02;;;;;;;18.99;97.02;98698.72;1628469;86;22015;-64
2022/09/17 09:03:58;;;;;;;3.15;2.20;;;;;;;19.10;95.25;98698.20;1621611;86;21545;-65
2022/09/17 09:06:28;;;;;;;3.75;2.92;;;;;;;19.06;93.70;98706.96;1626886;86;21053;-64
2022/09/17 09:09:02;;;;;;;3.83;2.50;;;;;;;19.05;93.79;98706.13;1626906;86;21475;-64
2022/09/17 09:11:29;;;;;;;2.30;2.10;;;;;;;19.08;92.92;98702.83;1635054;86;21525;-65
2022/09/17 09:14:20;;;;;;;3.17;2.98;;;;;;;19.01;92.34;98704.73;1635799;86;21612;-65
2022/09/17 09:16:47;;;;;;;4.55;2.62;;;;;;;18.99;92.32;98701.38;1622690;86;22163;-65
2022/09/17 09:19:21;;;;;;;2.58;2.37;;;;;;;18.96;92.29;98702.98;1636798;85;21675;-65
2022/09/17 09:22:04;;;;;;;3.98;2.05;;;;;;;18.99;93.75;98699.22;1633315;85;21569;-65
2022/09/17 09:24:43;;;;;;;2.50;2.30;;;;;;;19.08;93.88;98699.70;1633342;85;21577;-64
2022/09/17 09:27:19;;;;;;;2.70;2.40;;;;;;;19.15;93.61;98705.28;1634052;85;21560;-65
2022/09/17 09:30:11;;;;;;;4.30;2.45;;;;;;;19.12;92.71;98706.88;1637299;86;21529;-65
2022/09/17 09:33:01;;;;;;;3.12;2.42;;;;;;;19.05;92.85;98701.30;1627095;85;21750;-65
2022/09/17 09:35:31;;;;;;;2.62;2.20;;;;;;;19.03;92.30;98704.60;1639905;86;21506;-65
2022/09/17 09:38:30;;;;;;;3.45;2.60;;;;;;;18.92;92.67;98700.77;1639566;84;21526;-64
2022/09/17 09:41:04;;;;;;;3.20;2.90;;;;;;;18.87;93.31;98703.83;1626414;86;21592;-64
2022/09/17 09:43:37;;;;;;;4.50;3.00;;;;;;;18.86;93.12;98708.83;1622235;86;21784;-65
2022/09/17 09:46:40;;;;;;;3.98;3.17;;;;;;;18.85;93.57;98700.47;1627016;86;21632;-64
2022/09/17 09:49:27;;;;;;;3.85;2.10;;;;;;;18.90;94.56;98694.73;1624537;86;21580;-65
2022/09/17 09:52:34;;;;;;;2.43;2.23;;;;;;;19.00;93.93;98702.21;1625064;86;21446;-64
2022/09/17 09:55:16;;;;;;;;;;;;;;;19.05;92.77;98720.78;1628138;87;21431;-64
2022/09/17 09:57:55;;;;;;;2.45;2.25;;;;;;;19.08;91.25;98728.14;1630884;86;22136;-64
2022/09/17 10:00:31;;;;;;;5.53;2.92;;;;;;;19.08;92.54;98713.02;1625805;87;21080;-65
2022/09/17 10:03:15;;;;;;;3.05;2.85;;;;;;;19.13;92.97;98713.91;1627327;86;21510;-65
2022/09/17 10:06:06;;;;;;;3.67;3.12;;;;;;;19.15;93.16;98706.11;1621895;86;21065;-65
2022/09/17 10:08:36;;;;;;;3.60;2.92;;;;;;;19.21;92.96;98707.36;1634945;86;20961;-64
2022/09/17 10:11:06;;;;;;;4.90;3.60;;;;;;;19.31;94.85;98721.52;1627025;85;21842;-65
2022/09/17 10:13:34;;;;;;;3.72;3.35;;;;;;;19.47;95.35;98722.73;1624079;85;20973;-64
2022/09/17 10:16:22;;;;;;;3.10;2.90;;;;;;;19.55;94.75;98714.84;1625334;85;21084;-65
2022/09/17 10:18:50;;;;;;;3.90;3.55;;;;;;;19.57;93.91;98719.53;1630858;85;28444;-64
2022/09/17 10:21:32;;;;;;;3.58;3.27;;;;;;;19.60;94.02;98714.75;1638221;86;21626;-65
2022/09/17 10:24:01;;;;;;;5.87;5.30;;;;;;;19.63;93.62;98709.64;1628312;85;21427;-65
2022/09/17 10:26:33;;;;;;;5.37;4.97;;;;;;;19.68;93.47;98705.19;1627699;86;21516;-65
2022/09/17 10:29:04;;;;;;;5.22;4.78;;;;;;;19.75;93.30;98699.16;1628678;86;21041;-65
2022/09/17 10:31:53;;;;;;;4.47;4.08;;;;;;;19.81;95.33;98705.73;1626479;86;21490;-64
2022/09/17 10:34:28;;;;;;;3.62;3.30;;;;;;;19.93;95.52;98713.03;1629086;86;20962;-64
2022/09/17 10:36:56;;;;;;;3.90;3.50;;;;;;;20.06;94.94;98710.02;1627965;86;21744;-65
2022/09/17 10:39:37;;;;;;;4.28;3.35;;;;;;;20.13;93.65;98707.94;1618457;86;21541;-65
2022/09/17 10:42:13;;;;;;;4.35;3.55;;;;;;;20.06;93.16;98704.22;1635635;86;21041;-64
2022/09/17 10:44:56;;;;;;;5.20;3.83;;;;;;;19.94;92.90;98706.22;1633202;86;21526;-64
2022/09/17 10:47:29;;;;;;;3.77;3.37;;;;;;;19.92;93.04;98701.53;1610185;86;21569;-65
2022/09/17 10:50:07;;;;;;;4.05;3.17;;;;;;;19.89;92.73;98704.98;1649359;84;21418;-65
2022/09/17 10:52:36;;;;;;;5.35;3.55;;;;;;;19.82;92.81;98704.25;1617767;86;21021;-65
2022/09/17 10:55:42;;;;;;;4.15;3.77;;;;;;;19.74;92.85;98705.49;1610770;86;21127;-65
2022/09/17 10:58:29;;;;;;;3.60;3.20;;;;;;;19.77;93.03;98705.18;1640815;84;21506;-68
2022/09/17 11:01:07;;;;;;;3.30;3.02;;;;;;;19.82;94.52;98698.92;1605758;87;21441;-65
2022/09/17 11:04:08;;;;;;;3.22;3.00;;;;;;;19.90;95.15;98699.51;1608813;87;22198;-66
2022/09/17 11:07:09;;;;;;;5.47;3.37;;;;;;;19.95;94.06;98698.58;1624136;84;21608;-64
2022/09/17 11:09:54;;;;;;;4.28;3.50;;;;;;;19.88;93.38;98690.81;1644155;84;21540;-64
2022/09/17 11:12:42;;;;;;;6.40;3.58;;;;;;;19.89;91.95;98686.31;1641392;84;21620;-67
2022/09/17 11:15:32;;;;;;;5.42;3.75;;;;;;;19.81;92.13;98687.05;1639387;85;21485;-65
2022/09/17 11:18:42;;;;;;;5.92;4.78;;;;;;;19.85;92.07;98687.10;1639476;85;22061;-66
2022/09/17 11:21:33;;;;;;;4.37;3.90;;;;;;;19.81;92.28;98685.72;1642411;84;21549;-67
2022/09/17 11:24:34;;;;;;;4.72;4.22;;;;;;;19.76;92.71;98680.84;1642685;85;21600;-64
2022/09/17 11:27:09;;;;;;;6.50;3.47;;;;;;;19.86;94.38;98686.62;1642054;84;21455;-65
2022/09/17 11:30:19;;;;;;;7.00;6.30;;;;;;;19.88;95.00;98678.81;1634760;86;21592;-64
2022/09/17 11:33:06;;;;;;;5.72;4.80;;;;;;;19.96;94.65;98674.90;1644538;84;21454;-64
2022/09/17 11:35:59;;;;;;;4.60;4.20;;;;;;;19.88;93.95;98668.14;1641863;85;21483;-64
2022/09/17 11:38:47;;;;;;;6.05;4.75;;;;;;;19.82;93.16;98669.58;1637723;85;21517;-65
2022/09/17 11:41:28;;;;;;;4.03;3.72;;;;;;;19.84;93.31;98667.60;1644025;84;21632;-64
2022/09/17 11:44:26;;;;;;;4.72;4.12;;;;;;;19.86;93.63;98665.30;1642049;84;21576;-65
2022/09/17 11:46:57;;;;;;;3.15;2.95;;;;;;;19.81;93.91;98659.88;1648553;84;21819;-65
2022/09/17 11:49:55;;;;;;;3.70;3.40;;;;;;;19.84;95.97;98646.27;1633482;86;21498;-64
2022/09/17 11:52:33;;;;;;;3.77;3.37;;;;;;;19.92;97.37;98648.69;1639629;84;21614;-65
2022/09/17 11:55:26;;;;;;;3.80;3.50;;;;;;;19.93;95.79;98645.88;1628087;85;21870;-64
2022/09/17 11:58:02;;;;;;;4.10;3.80;;;;;;;19.88;95.92;98649.98;1641180;84;21580;-65
2022/09/17 12:00:30;;;;;;;6.65;4.28;;;;;;;19.87;95.76;98648.28;1637067;86;21836;-65
2022/09/17 12:03:06;;;;;;;;;;;;;;;19.87;95.20;98649.61;1644145;84;21463;-66
2022/09/17 12:05:41;;;;;;;3.37;3.12;;;;;;;19.82;97.08;98646.91;1623626;87;20435;-65
2022/09/17 12:08:40;;;;;;;3.35;3.05;;;;;;;19.74;94.96;98640.16;1625038;86;21605;-66